createdAt,value
2019-05-14T00:01:48.026Z,12.72
2019-05-14T00:04:16.748Z,12.78
2019-05-14T00:06:45.574Z,12.86
2019-05-14T00:09:14.301Z,12.89
2019-05-14T00:11:43.026Z,12.91
2019-05-14T00:14:11.928Z,12.79
2019-05-14T00:16:42.405Z,12.73
2019-05-14T00:19:11.387Z,12.72
2019-05-14T00:21:42.271Z,12.86
2019-05-14T00:24:11.365Z,13.13
2019-05-14T00:26:42.555Z,13.14
2019-05-14T00:29:11.513Z,12.88
2019-05-14T00:31:42.427Z,12.84
2019-05-14T00:34:11.292Z,12.92
2019-05-14T00:36:41.609Z,12.77
2019-05-14T00:39:11.326Z,12.83
2019-05-14T00:41:41.995Z,12.77
2019-05-14T00:44:10.853Z,12.67
2019-05-14T00:46:41.087Z,12.71
2019-05-14T00:49:11.878Z,12.58
2019-05-14T00:51:41.273Z,12.50
2019-05-14T00:54:11.232Z,12.53
2019-05-14T00:56:41.727Z,12.45
2019-05-14T00:59:11.354Z,12.43
2019-05-14T01:01:42.295Z,12.41
2019-05-14T01:04:11.822Z,12.33
2019-05-14T01:06:42.049Z,12.20
2019-05-14T01:09:11.496Z,12.19
2019-05-14T01:11:42.068Z,12.18
2019-05-14T01:14:12.276Z,12.10
2019-05-14T01:16:42.412Z,12.08
2019-05-14T01:19:12.368Z,12.01
2019-05-14T01:21:41.818Z,11.90
2019-05-14T01:24:12.623Z,11.83
2019-05-14T01:26:41.610Z,11.73
2019-05-14T01:29:11.946Z,11.73
2019-05-14T01:31:41.803Z,11.72
2019-05-14T01:34:11.226Z,11.76
2019-05-14T01:36:41.383Z,11.73
2019-05-14T01:39:12.143Z,11.74
2019-05-14T01:41:42.322Z,11.74
2019-05-14T01:44:11.964Z,11.85
2019-05-14T01:46:42.020Z,11.85
2019-05-14T01:49:12.054Z,11.89
2019-05-14T01:51:42.343Z,11.85
2019-05-14T01:54:11.912Z,11.90
2019-05-14T01:56:42.327Z,11.98
2019-05-14T01:59:12.116Z,12.03
2019-05-14T02:01:41.621Z,11.93
2019-05-14T02:04:11.597Z,11.97
2019-05-14T02:06:41.383Z,12.15
2019-05-14T02:09:11.110Z,12.14
2019-05-14T02:11:41.544Z,12.20
2019-05-14T02:14:11.692Z,12.16
2019-05-14T02:16:42.322Z,12.07
2019-05-14T02:19:11.635Z,12.03
2019-05-14T02:21:42.497Z,12.07
2019-05-14T02:24:11.474Z,12.04
2019-05-14T02:26:42.497Z,12.08
2019-05-14T02:29:12.475Z,12.06
2019-05-14T02:31:41.503Z,12.12
2019-05-14T02:34:10.528Z,12.24
2019-05-14T02:36:40.103Z,12.27
2019-05-14T02:39:10.124Z,12.32
2019-05-14T02:41:39.475Z,12.24
2019-05-14T02:44:09.972Z,12.25
2019-05-14T02:46:40.475Z,12.12
2019-05-14T02:49:10.450Z,12.02
2019-05-14T02:51:39.661Z,12.08
2019-05-14T02:54:10.032Z,12.12
2019-05-14T02:56:44.331Z,12.18
2019-05-14T02:59:19.815Z,12.18
2019-05-14T03:01:58.884Z,12.22
2019-05-14T03:04:26.197Z,12.31
2019-05-14T03:06:54.918Z,12.20
2019-05-14T03:09:23.754Z,12.21
2019-05-14T03:11:52.710Z,12.20
2019-05-14T03:14:21.451Z,12.17
2019-05-14T03:16:50.288Z,12.10
2019-05-14T03:19:19.772Z,12.04
2019-05-14T03:21:50.066Z,12.00
2019-05-14T03:24:19.720Z,12.02
2019-05-14T03:26:49.969Z,12.07
2019-05-14T03:29:19.652Z,12.07
2019-05-14T03:31:52.449Z,12.15
2019-05-14T03:34:22.040Z,12.22
2019-05-14T03:36:52.885Z,12.27
2019-05-14T03:39:20.112Z,12.21
2019-05-14T03:41:49.957Z,12.18
2019-05-14T03:44:19.974Z,12.24
2019-05-14T03:46:54.718Z,12.29
2019-05-14T03:49:20.053Z,12.35
2019-05-14T03:51:49.802Z,12.36
2019-05-14T03:54:19.595Z,12.42
2019-05-14T03:56:49.609Z,12.57
2019-05-14T03:59:19.921Z,12.62
2019-05-14T04:01:50.982Z,12.64
2019-05-14T04:04:19.899Z,12.69
2019-05-14T04:06:49.939Z,12.70
2019-05-14T04:09:20.674Z,12.75
2019-05-14T04:11:51.179Z,12.65
2019-05-14T04:14:22.798Z,12.70
2019-05-14T04:17:08.028Z,12.64
2019-05-14T04:19:24.972Z,12.62
2019-05-14T04:21:54.758Z,12.55
2019-05-14T04:24:24.444Z,12.66
2019-05-14T04:27:03.424Z,12.70
2019-05-14T04:29:30.718Z,12.64
2019-05-14T04:32:00.340Z,12.65
2019-05-14T04:34:30.154Z,12.82
2019-05-14T04:36:59.645Z,12.91
2019-05-14T04:39:30.728Z,13.00
2019-05-14T04:42:00.038Z,13.08
2019-05-14T04:44:29.919Z,13.12
2019-05-14T04:46:59.955Z,13.25
2019-05-14T04:49:29.445Z,13.25
2019-05-14T04:51:59.594Z,13.13
2019-05-14T04:54:30.239Z,13.15
2019-05-14T04:57:00.152Z,13.18
2019-05-14T04:59:29.913Z,13.39
2019-05-14T05:02:00.086Z,13.31
2019-05-14T05:04:29.797Z,13.21
2019-05-14T05:06:59.431Z,13.07
2019-05-14T05:09:29.264Z,12.97
2019-05-14T05:11:59.760Z,12.87
2019-05-14T05:14:29.658Z,12.83
2019-05-14T05:16:59.744Z,12.79
2019-05-14T05:19:29.164Z,12.73
2019-05-14T05:21:58.706Z,12.76
2019-05-14T05:24:28.733Z,12.78
2019-05-14T05:26:58.574Z,12.81
2019-05-14T05:29:28.606Z,12.81
2019-05-14T05:31:59.413Z,12.94
2019-05-14T05:34:28.428Z,12.95
2019-05-14T05:36:59.244Z,12.95
2019-05-14T05:39:28.375Z,12.95
2019-05-14T05:41:58.510Z,13.13
2019-05-14T05:44:28.709Z,13.22
2019-05-14T05:46:59.733Z,13.11
2019-05-14T05:49:29.125Z,13.09
2019-05-14T05:51:59.191Z,13.00
2019-05-14T05:54:29.221Z,13.01
2019-05-14T05:56:58.341Z,13.06
2019-05-14T05:59:29.337Z,12.99
2019-05-14T06:01:58.632Z,12.94
2019-05-14T06:04:29.060Z,12.80
2019-05-14T06:06:59.058Z,12.81
2019-05-14T06:09:28.810Z,13.04
2019-05-14T06:11:59.225Z,13.11
2019-05-14T06:14:29.144Z,13.04
2019-05-14T06:16:59.068Z,13.03
2019-05-14T06:19:29.019Z,13.03
2019-05-14T06:21:59.657Z,12.98
2019-05-14T06:24:28.748Z,12.81
2019-05-14T06:26:58.649Z,12.81
2019-05-14T06:29:29.015Z,12.77
2019-05-14T06:31:58.912Z,12.89
2019-05-14T06:34:29.108Z,12.92
2019-05-14T06:36:59.120Z,12.99
2019-05-14T06:39:28.628Z,13.02
2019-05-14T06:41:58.560Z,12.90
2019-05-14T06:44:29.402Z,12.84
2019-05-14T06:46:59.111Z,12.84
2019-05-14T06:49:28.981Z,12.96
2019-05-14T06:51:59.490Z,13.00
2019-05-14T06:54:29.330Z,12.94
2019-05-14T06:56:58.443Z,12.95
2019-05-14T06:59:28.740Z,13.06
2019-05-14T07:01:58.194Z,12.99
2019-05-14T07:04:28.863Z,13.02
2019-05-14T07:06:59.144Z,13.10
2019-05-14T07:09:28.984Z,13.01
2019-05-14T07:11:58.606Z,13.07
2019-05-14T07:14:28.315Z,13.07
2019-05-14T07:16:58.918Z,13.10
2019-05-14T07:19:29.359Z,13.17
2019-05-14T07:21:58.463Z,13.28
2019-05-14T07:24:28.273Z,13.41
2019-05-14T07:26:58.710Z,13.49
2019-05-14T07:29:29.275Z,13.43
2019-05-14T07:31:59.336Z,13.39
2019-05-14T07:34:28.489Z,13.34
2019-05-14T07:36:58.732Z,13.35
2019-05-14T07:39:29.094Z,13.37
2019-05-14T07:41:59.097Z,13.41
2019-05-14T07:44:29.643Z,13.31
2019-05-14T07:46:59.027Z,13.24
2019-05-14T07:49:29.677Z,13.18
2019-05-14T07:52:01.123Z,13.29
2019-05-14T07:54:29.940Z,13.25
2019-05-14T07:56:59.166Z,13.12
2019-05-14T07:59:34.771Z,13.15
2019-05-14T08:02:03.643Z,13.17
2019-05-14T08:04:32.380Z,13.30
2019-05-14T08:07:01.119Z,13.43
2019-05-14T08:09:29.932Z,13.49
2019-05-14T08:11:58.927Z,13.51
2019-05-14T08:14:29.378Z,13.53
2019-05-14T08:16:59.519Z,13.54
2019-05-14T08:19:31.525Z,13.36
2019-05-14T08:21:59.142Z,13.37
2019-05-14T08:24:30.110Z,13.40
2019-05-14T08:26:58.521Z,13.13
2019-05-14T08:29:28.641Z,13.06
2019-05-14T08:31:58.234Z,13.06
2019-05-14T08:34:30.419Z,13.06
2019-05-14T08:36:58.929Z,13.17
2019-05-14T08:39:28.559Z,13.17
2019-05-14T08:42:03.674Z,13.42
2019-05-14T08:44:29.363Z,13.52
2019-05-14T08:46:59.007Z,13.54
2019-05-14T08:49:38.968Z,13.47
2019-05-14T08:51:59.494Z,13.48
2019-05-14T08:54:28.581Z,13.49
2019-05-14T08:56:58.452Z,13.42
2019-05-14T08:59:28.626Z,13.34
2019-05-14T09:02:05.834Z,13.36
2019-05-14T09:04:30.160Z,13.37
2019-05-14T09:06:58.678Z,13.29
2019-05-14T09:09:29.073Z,13.37
2019-05-14T09:12:00.331Z,13.52
2019-05-14T09:14:29.183Z,13.74
2019-05-14T09:17:00.142Z,13.86
2019-05-14T09:19:30.529Z,14.14
2019-05-14T09:21:59.410Z,14.42
2019-05-14T09:24:29.413Z,14.40
2019-05-14T09:26:59.240Z,14.22
2019-05-14T09:29:29.714Z,14.31
2019-05-14T09:31:59.310Z,14.34
2019-05-14T09:34:29.121Z,14.65
2019-05-14T09:36:59.343Z,14.54
2019-05-14T09:39:31.458Z,14.64
2019-05-14T09:42:01.643Z,14.59
2019-05-14T09:44:30.412Z,14.64
2019-05-14T09:46:59.550Z,14.57
2019-05-14T09:49:28.409Z,14.50
2019-05-14T09:51:58.592Z,14.51
2019-05-14T09:54:28.805Z,14.51
2019-05-14T09:56:59.185Z,14.65
2019-05-14T09:59:28.458Z,14.71
2019-05-14T10:01:58.524Z,14.77
2019-05-14T10:04:27.589Z,14.94
2019-05-14T10:06:59.063Z,15.18
2019-05-14T10:09:28.974Z,15.34
2019-05-14T10:11:58.080Z,15.47
2019-05-14T10:14:29.612Z,15.58
2019-05-14T10:16:58.313Z,15.57
2019-05-14T10:19:29.642Z,15.50
2019-05-14T10:21:58.842Z,15.48
2019-05-14T10:24:29.099Z,15.51
2019-05-14T10:26:58.647Z,15.68
2019-05-14T10:29:28.615Z,15.76
2019-05-14T10:31:59.212Z,15.86
2019-05-14T10:34:28.717Z,15.84
2019-05-14T10:36:59.074Z,15.88
2019-05-14T10:39:29.877Z,16.24
2019-05-14T10:41:58.587Z,16.67
2019-05-14T10:44:29.317Z,16.74
2019-05-14T10:46:58.274Z,16.63
2019-05-14T10:49:29.744Z,16.63
2019-05-14T10:51:58.576Z,16.58
2019-05-14T10:54:29.242Z,16.72
2019-05-14T10:56:59.088Z,16.59
2019-05-14T10:59:31.261Z,16.63
2019-05-14T11:19:05.210Z,19.02
2019-05-14T11:21:34.011Z,19.36
2019-05-14T11:24:05.794Z,19.51
2019-05-14T11:26:35.163Z,19.09
2019-05-14T11:29:03.872Z,18.65
2019-05-14T11:31:34.375Z,18.21
2019-05-14T11:34:04.076Z,18.19
2019-05-14T11:36:32.832Z,18.04
2019-05-14T11:39:04.131Z,18.06
2019-05-14T11:41:32.076Z,18.33
2019-05-14T11:44:00.803Z,18.78
2019-05-14T11:46:43.613Z,19.07
2019-05-14T11:49:00.148Z,19.21
2019-05-14T11:51:54.713Z,19.51
2019-05-14T11:53:59.339Z,19.75
2019-05-14T11:56:29.447Z,19.75
2019-05-14T11:58:59.062Z,19.90
2019-05-14T12:01:29.780Z,20.04
2019-05-14T12:03:59.734Z,19.58
2019-05-14T12:06:30.418Z,19.20
2019-05-14T12:08:59.177Z,18.65
2019-05-14T12:11:29.080Z,18.31
2019-05-14T12:13:59.880Z,17.92
2019-05-14T12:16:29.238Z,17.89
2019-05-14T12:18:59.123Z,17.96
2019-05-14T12:21:28.872Z,18.06
2019-05-14T12:24:04.022Z,17.82
2019-05-14T12:26:28.471Z,17.92
2019-05-14T12:28:59.456Z,17.91
2019-05-14T12:31:28.905Z,17.89
2019-05-14T12:33:58.427Z,17.89
2019-05-14T12:36:29.242Z,17.89
2019-05-14T12:38:59.165Z,17.93
2019-05-14T12:41:38.239Z,18.03
2019-05-14T13:13:19.730Z,19.45
2019-05-14T13:15:48.590Z,19.38
2019-05-14T13:18:19.329Z,19.48
2019-05-14T13:20:48.255Z,19.53
2019-05-14T13:23:18.382Z,19.52
2019-05-14T13:25:47.250Z,19.53
2019-05-14T13:28:16.088Z,19.59
2019-05-14T13:30:44.819Z,19.93
2019-05-14T13:33:13.541Z,19.72
2019-05-14T13:35:42.492Z,19.80
2019-05-14T13:38:14.308Z,19.72
2019-05-14T13:40:41.672Z,19.98
2019-05-14T13:43:14.407Z,19.96
2019-05-14T13:45:41.964Z,20.14
2019-05-14T13:48:10.690Z,20.03
2019-05-14T13:50:40.253Z,20.21
2019-05-14T13:53:12.757Z,20.23
2019-05-14T13:55:46.238Z,20.16
2019-05-14T13:58:10.166Z,20.06
2019-05-14T14:00:38.910Z,19.92
2019-05-14T14:03:10.079Z,19.63
2019-05-14T14:05:39.201Z,19.57
2019-05-14T14:08:08.774Z,19.23
2019-05-14T14:10:44.802Z,18.92
2019-05-14T14:13:11.155Z,18.73
2019-05-14T14:15:38.963Z,18.68
2019-05-14T14:18:07.691Z,18.69
2019-05-14T14:20:39.248Z,18.63
2019-05-14T14:23:18.933Z,18.42
2019-05-14T14:25:39.486Z,18.26
2019-05-14T14:31:44.996Z,18.32
2019-05-14T14:34:13.724Z,18.36
2019-05-14T14:36:42.454Z,18.45
2019-05-14T14:39:11.265Z,18.22
2019-05-14T14:41:40.023Z,18.12
2019-05-14T14:44:09.065Z,18.16
2019-05-14T14:46:39.139Z,18.15
2019-05-14T14:49:10.923Z,18.26
2019-05-14T14:51:44.033Z,18.40
2019-05-14T14:54:15.238Z,18.51
2019-05-14T14:56:39.590Z,18.63
2019-05-14T14:59:09.535Z,18.67
2019-05-14T15:01:40.258Z,18.89
2019-05-14T15:04:13.629Z,18.96
2019-05-14T15:06:39.996Z,18.97
2019-05-14T15:09:09.712Z,19.01
2019-05-14T15:11:39.599Z,18.94
2019-05-14T15:14:08.646Z,18.91
2019-05-14T15:16:39.146Z,18.97
2019-05-14T15:19:09.497Z,18.99
2019-05-14T15:21:38.349Z,18.94
2019-05-14T15:24:15.168Z,18.98
2019-05-14T15:26:37.595Z,18.87
2019-05-14T15:29:09.673Z,18.88
2019-05-14T15:31:38.599Z,18.79
2019-05-14T15:34:08.979Z,18.75
2019-05-14T15:36:41.243Z,18.64
2019-05-14T15:39:10.081Z,18.55
2019-05-14T15:41:39.501Z,18.38
2019-05-14T15:44:09.008Z,18.40
2019-05-14T15:46:41.919Z,18.29
2019-05-14T15:49:09.113Z,18.10
2019-05-14T15:51:39.780Z,18.17
2019-05-14T15:54:34.533Z,18.15
2019-05-14T15:56:39.469Z,18.07
2019-05-14T15:59:08.851Z,17.99
2019-05-14T16:01:39.794Z,17.92
2019-05-14T16:04:11.413Z,17.82
2019-05-14T16:06:38.753Z,17.89
2019-05-14T16:09:07.830Z,17.87
2019-05-14T16:11:39.168Z,17.89
2019-05-14T16:14:08.233Z,17.72
2019-05-14T16:16:39.215Z,17.88
2019-05-14T16:19:08.362Z,17.84
2019-05-14T16:21:38.623Z,17.70
2019-05-14T16:24:08.299Z,17.66
2019-05-14T16:26:38.370Z,17.66
2019-05-14T16:29:08.888Z,17.59
2019-05-14T16:31:43.230Z,17.58
2019-05-14T16:34:09.809Z,17.68
2019-05-14T16:36:41.336Z,17.61
2019-05-14T16:39:09.791Z,17.58
2019-05-14T16:41:39.050Z,17.48
2019-05-14T16:44:09.061Z,17.34
2019-05-14T16:46:38.563Z,17.35
2019-05-14T16:49:08.947Z,17.40
2019-05-14T16:51:37.865Z,17.37
2019-05-14T16:54:06.662Z,17.36
2019-05-14T16:56:35.403Z,17.26
2019-05-14T16:59:04.154Z,17.33
2019-05-14T17:01:33.944Z,17.21
2019-05-14T17:04:04.733Z,17.06
2019-05-14T17:06:34.849Z,17.18
2019-05-14T17:09:05.073Z,17.10
2019-05-14T17:11:33.784Z,17.01
2019-05-14T17:14:02.607Z,16.95
2019-05-14T17:16:31.472Z,16.79
2019-05-14T17:19:00.231Z,16.56
2019-05-14T17:21:28.957Z,16.36
2019-05-14T17:23:58.150Z,16.13
2019-05-14T17:26:28.772Z,16.05
2019-05-14T17:28:59.671Z,15.86
2019-05-14T17:31:30.914Z,15.70
2019-05-14T17:33:58.723Z,15.58
2019-05-14T17:36:28.286Z,15.40
2019-05-14T17:38:58.625Z,15.45
2019-05-14T17:41:27.501Z,15.36
2019-05-14T17:43:58.461Z,15.27
2019-05-14T17:46:28.925Z,15.13
2019-05-14T17:48:59.114Z,15.21
2019-05-14T17:51:28.428Z,15.21
2019-05-14T17:53:58.667Z,15.08
2019-05-14T17:56:28.394Z,15.02
2019-05-14T17:58:57.938Z,14.95
2019-05-14T18:01:29.006Z,14.82
2019-05-14T18:03:58.471Z,14.90
2019-05-14T18:06:28.573Z,15.00
2019-05-14T18:08:58.680Z,14.98
2019-05-14T18:11:28.405Z,14.84
2019-05-14T18:13:58.970Z,14.65
2019-05-14T18:16:28.504Z,14.42
2019-05-14T18:18:58.319Z,14.37
2019-05-14T18:21:28.504Z,14.37
2019-05-14T18:23:58.599Z,14.33
2019-05-14T18:26:38.588Z,14.16
2019-05-14T18:29:08.749Z,13.97
2019-05-14T18:31:44.571Z,13.85
2019-05-14T18:34:08.122Z,13.82
2019-05-14T18:36:39.519Z,13.85
2019-05-14T18:39:09.258Z,13.85
2019-05-14T18:41:39.461Z,13.84
2019-05-14T18:44:08.521Z,13.82
2019-05-14T18:46:39.408Z,13.93
2019-05-14T18:49:08.790Z,13.84
2019-05-14T18:51:37.643Z,13.91
2019-05-14T18:54:08.015Z,13.97
2019-05-14T18:56:38.401Z,13.97
2019-05-14T18:59:09.089Z,13.99
2019-05-14T19:01:39.722Z,14.06
2019-05-14T19:04:08.376Z,14.04
2019-05-14T19:06:38.887Z,14.00
2019-05-14T19:09:10.705Z,14.04
2019-05-14T19:11:39.107Z,14.04
2019-05-14T19:14:09.001Z,13.96
2019-05-14T19:16:38.465Z,13.88
2019-05-14T19:19:08.091Z,13.73
2019-05-14T19:21:38.239Z,13.69
2019-05-14T19:24:09.068Z,13.54
2019-05-14T19:26:40.311Z,13.44
2019-05-14T19:29:08.752Z,13.42
2019-05-14T19:31:38.670Z,13.48
2019-05-14T19:34:08.499Z,13.48
2019-05-14T19:36:39.765Z,13.43
2019-05-14T19:39:08.568Z,13.37
2019-05-14T19:41:38.915Z,13.31
2019-05-14T19:44:08.792Z,13.28
2019-05-14T19:46:38.615Z,13.35
2019-05-14T19:49:08.162Z,13.44
2019-05-14T19:51:38.699Z,13.58
2019-05-14T19:54:08.256Z,13.67
2019-05-14T19:56:51.889Z,13.75
2019-05-14T19:59:09.076Z,13.87
2019-05-14T20:01:38.694Z,13.96
2019-05-14T20:04:09.526Z,13.97
2019-05-14T20:06:38.857Z,13.99
2019-05-14T20:09:09.562Z,14.05
2019-05-14T20:11:39.634Z,14.10
2019-05-14T20:14:08.899Z,14.25
2019-05-14T20:16:39.226Z,14.19
2019-05-14T20:19:08.808Z,14.08
2019-05-14T20:21:38.960Z,14.10
2019-05-14T20:24:07.929Z,14.16
2019-05-14T20:26:38.883Z,14.16
2019-05-14T20:29:08.721Z,14.15
2019-05-14T20:31:38.984Z,14.13
2019-05-14T20:34:08.469Z,14.17
2019-05-14T20:36:39.040Z,14.10
2019-05-14T20:39:08.662Z,14.11
2019-05-14T20:41:38.507Z,14.10
2019-05-14T20:44:07.592Z,14.17
2019-05-14T20:46:38.259Z,14.19
2019-05-14T20:49:08.862Z,14.27
2019-05-14T20:51:38.907Z,14.36
2019-05-14T20:54:08.912Z,14.29
2019-05-14T20:56:39.992Z,14.33
2019-05-14T20:59:08.424Z,14.40
2019-05-14T21:01:38.685Z,14.39
2019-05-14T21:04:09.024Z,14.35
2019-05-14T21:06:39.024Z,14.32
2019-05-14T21:09:08.060Z,14.29
2019-05-14T21:11:38.414Z,14.16
2019-05-14T21:14:08.918Z,14.08
2019-05-14T21:16:39.267Z,14.03
2019-05-14T21:19:08.618Z,14.04
2019-05-14T21:21:38.305Z,14.05
2019-05-14T21:24:10.097Z,13.98
2019-05-14T21:26:40.125Z,13.98
2019-05-14T21:29:09.205Z,14.00
2019-05-14T21:31:38.479Z,13.92
2019-05-14T21:34:08.193Z,13.82
2019-05-14T21:36:39.104Z,13.80
2019-05-14T21:39:08.092Z,13.82
2019-05-14T21:41:38.726Z,13.72
2019-05-14T21:44:08.559Z,13.73
2019-05-14T21:46:39.821Z,13.71
2019-05-14T21:49:11.131Z,13.58
2019-05-14T21:51:39.472Z,13.48
2019-05-14T21:54:09.451Z,13.34
2019-05-14T21:56:38.805Z,13.28
2019-05-14T21:59:09.595Z,13.21
2019-05-14T22:01:39.326Z,13.14
2019-05-14T22:04:11.476Z,13.11
2019-05-14T22:06:41.272Z,13.19
2019-05-14T22:09:10.207Z,13.20
2019-05-14T22:11:39.452Z,13.28
2019-05-14T22:14:08.512Z,13.35
2019-05-14T22:16:38.073Z,13.42
2019-05-14T22:19:08.478Z,13.46
2019-05-14T22:21:38.583Z,13.49
2019-05-14T22:24:07.904Z,13.54
2019-05-14T22:26:38.754Z,13.56
2019-05-14T22:29:08.342Z,13.64
2019-05-14T22:31:38.745Z,13.73
2019-05-14T22:34:08.927Z,13.82
2019-05-14T22:36:38.647Z,13.91
2019-05-14T22:39:07.607Z,14.02
2019-05-14T22:41:38.307Z,14.02
2019-05-14T22:44:09.066Z,14.07
2019-05-14T22:46:39.964Z,14.15
2019-05-14T22:49:09.208Z,14.20
2019-05-14T22:51:38.535Z,14.29
2019-05-14T22:54:08.726Z,14.35
2019-05-14T22:56:38.926Z,14.43
2019-05-14T22:59:08.011Z,14.53
2019-05-14T23:01:38.640Z,14.60
2019-05-14T23:04:08.997Z,14.63
2019-05-14T23:06:38.378Z,14.63
2019-05-14T23:09:09.046Z,14.59
2019-05-14T23:11:38.450Z,14.57
2019-05-14T23:14:07.626Z,14.61
2019-05-14T23:16:39.245Z,14.71
2019-05-14T23:19:07.964Z,14.77
2019-05-14T23:21:39.094Z,14.77
2019-05-14T23:24:09.203Z,14.79
2019-05-14T23:26:38.159Z,14.81
2019-05-14T23:29:07.065Z,14.77
2019-05-14T23:31:38.244Z,14.67
2019-05-14T23:34:06.605Z,14.65
2019-05-14T23:36:35.803Z,14.74
2019-05-14T23:39:08.869Z,14.72
2019-05-14T23:41:38.319Z,14.75
2019-05-14T23:44:08.351Z,14.75
2019-05-14T23:46:37.497Z,14.68
2019-05-14T23:49:08.741Z,14.69
2019-05-14T23:51:38.516Z,14.64
2019-05-14T23:54:08.776Z,14.63
2019-05-14T23:56:38.388Z,14.66
2019-05-14T23:59:09.310Z,14.68
